createdAt,value
2023-04-09T00:00:30.803Z,7.52
2023-04-09T00:01:30.914Z,7.54
2023-04-09T00:02:30.795Z,7.54
2023-04-09T00:03:30.818Z,7.52
2023-04-09T00:04:30.803Z,7.52
2023-04-09T00:05:30.732Z,7.50
2023-04-09T00:06:30.723Z,7.50
2023-04-09T00:07:30.726Z,7.50
2023-04-09T00:08:30.705Z,7.49
2023-04-09T00:09:30.697Z,7.46
2023-04-09T00:10:30.697Z,7.46
2023-04-09T00:11:30.680Z,7.44
2023-04-09T00:12:30.649Z,7.46
2023-04-09T00:14:32.622Z,7.46
2023-04-09T00:15:31.934Z,7.47
2023-04-09T00:16:30.676Z,7.49
2023-04-09T00:17:30.628Z,7.49
2023-04-09T00:18:30.576Z,7.49
2023-04-09T00:19:30.575Z,7.49
2023-04-09T00:20:30.560Z,7.50
2023-04-09T00:21:30.543Z,7.50
2023-04-09T00:22:30.538Z,7.54
2023-04-09T00:23:30.521Z,7.55
2023-04-09T00:24:30.532Z,7.55
2023-04-09T00:25:30.501Z,7.55
2023-04-09T00:26:30.506Z,7.55
2023-04-09T00:27:30.473Z,7.54
2023-04-09T00:28:30.461Z,7.52
2023-04-09T00:29:30.449Z,7.50
2023-04-09T00:30:30.443Z,7.47
2023-04-09T00:31:30.462Z,7.43
2023-04-09T00:32:30.436Z,7.42
2023-04-09T00:33:30.406Z,7.39
2023-04-09T00:34:30.397Z,7.36
2023-04-09T00:35:30.496Z,7.36
2023-04-09T00:36:30.369Z,7.36
2023-04-09T00:37:30.375Z,7.34
2023-04-09T00:38:30.347Z,7.34
2023-04-09T00:39:30.341Z,7.33
2023-04-09T00:40:30.325Z,7.33
2023-04-09T00:41:30.320Z,7.33
2023-04-09T00:42:30.329Z,7.36
2023-04-09T00:43:30.296Z,7.37
2023-04-09T00:44:30.281Z,7.39
2023-04-09T00:45:30.300Z,7.36
2023-04-09T00:46:30.265Z,7.36
2023-04-09T00:47:30.277Z,7.34
2023-04-09T00:48:30.242Z,7.31
2023-04-09T00:49:30.224Z,7.31
2023-04-09T00:50:30.211Z,7.28
2023-04-09T00:51:30.204Z,7.28
2023-04-09T00:52:30.188Z,7.26
2023-04-09T00:53:30.179Z,7.26
2023-04-09T00:54:30.189Z,7.22
2023-04-09T00:55:30.176Z,7.21
2023-04-09T00:56:30.148Z,7.18
2023-04-09T00:57:30.139Z,7.18
2023-04-09T00:58:30.149Z,7.18
2023-04-09T00:59:30.114Z,7.16
2023-04-09T01:00:30.099Z,7.15
2023-04-09T01:01:30.137Z,7.13
2023-04-09T01:02:30.174Z,7.10
2023-04-09T01:03:30.092Z,7.10
2023-04-09T01:04:30.060Z,7.08
2023-04-09T01:05:30.050Z,7.10
2023-04-09T01:06:30.029Z,7.10
2023-04-09T01:07:30.027Z,7.07
2023-04-09T01:08:30.018Z,7.06
2023-04-09T01:09:29.999Z,7.04
2023-04-09T01:10:29.993Z,7.04
2023-04-09T01:11:31.977Z,7.01
2023-04-09T01:12:29.969Z,7.01
2023-04-09T01:13:29.965Z,7.03
2023-04-09T01:14:29.991Z,7.01
2023-04-09T01:15:29.945Z,7.00
2023-04-09T01:16:29.935Z,6.99
2023-04-09T01:17:30.008Z,6.99
2023-04-09T01:18:29.904Z,6.99
2023-04-09T01:19:29.888Z,6.97
2023-04-09T01:20:29.883Z,6.97
2023-04-09T01:21:29.862Z,6.97
2023-04-09T01:22:29.852Z,6.99
2023-04-09T01:23:29.853Z,6.99
2023-04-09T01:24:29.844Z,6.97
2023-04-09T01:25:29.821Z,6.97
2023-04-09T01:26:29.809Z,6.92
2023-04-09T01:27:29.798Z,6.96
2023-04-09T01:28:29.788Z,6.91
2023-04-09T01:29:29.777Z,6.91
2023-04-09T01:30:29.834Z,6.91
2023-04-09T01:31:29.779Z,6.91
2023-04-09T01:32:29.811Z,6.90
2023-04-09T01:33:29.731Z,6.91
2023-04-09T01:34:29.723Z,6.88
2023-04-09T01:35:29.727Z,6.88
2023-04-09T01:36:29.702Z,6.87
2023-04-09T01:37:29.689Z,6.87
2023-04-09T01:38:29.677Z,6.87
2023-04-09T01:39:29.668Z,6.84
2023-04-09T01:40:29.657Z,6.84
2023-04-09T01:41:29.643Z,6.84
2023-04-09T01:42:29.637Z,6.82
2023-04-09T01:43:29.631Z,6.82
2023-04-09T01:44:29.612Z,6.84
2023-04-09T01:45:29.617Z,6.82
2023-04-09T01:46:29.801Z,6.82
2023-04-09T01:47:29.603Z,6.81
2023-04-09T01:48:29.580Z,6.81
2023-04-09T01:49:29.554Z,6.80
2023-04-09T01:50:29.564Z,6.80
2023-04-09T01:51:29.537Z,6.81
2023-04-09T01:52:29.530Z,6.80
2023-04-09T01:53:29.511Z,6.80
2023-04-09T01:54:29.505Z,6.78
2023-04-09T01:55:29.498Z,6.77
2023-04-09T01:56:29.485Z,6.77
2023-04-09T01:57:29.477Z,6.74
2023-04-09T01:58:29.461Z,6.73
2023-04-09T01:59:29.445Z,6.72
2023-04-09T02:00:29.436Z,6.72
2023-04-09T02:01:29.437Z,6.70
2023-04-09T02:02:29.566Z,6.70
2023-04-09T02:03:29.491Z,6.72
2023-04-09T02:04:29.410Z,6.72
2023-04-09T02:05:29.378Z,6.70
2023-04-09T02:06:29.370Z,6.67
2023-04-09T02:07:29.393Z,6.67
2023-04-09T02:08:29.364Z,6.66
2023-04-09T02:09:29.342Z,6.66
2023-04-09T02:10:29.324Z,6.66
2023-04-09T02:11:29.314Z,6.64
2023-04-09T02:12:29.304Z,6.66
2023-04-09T02:13:29.297Z,6.66
2023-04-09T02:14:29.280Z,6.67
2023-04-09T02:15:29.290Z,6.66
2023-04-09T02:16:29.265Z,6.66
2023-04-09T02:17:29.274Z,6.64
2023-04-09T02:18:29.270Z,6.63
2023-04-09T02:19:29.232Z,6.60
2023-04-09T02:20:29.221Z,6.60
2023-04-09T02:21:29.215Z,6.59
2023-04-09T02:22:29.203Z,6.56
2023-04-09T02:23:29.183Z,6.56
2023-04-09T02:24:29.170Z,6.55
2023-04-09T02:25:29.175Z,6.55
2023-04-09T02:26:29.150Z,6.54
2023-04-09T02:27:29.140Z,6.55
2023-04-09T02:28:29.130Z,6.54
2023-04-09T02:29:29.115Z,6.56
2023-04-09T02:30:29.111Z,6.59
2023-04-09T02:31:29.178Z,6.56
2023-04-09T02:32:29.102Z,6.55
2023-04-09T02:33:29.078Z,6.55
2023-04-09T02:34:29.129Z,6.54
2023-04-09T02:35:29.049Z,6.55
2023-04-09T02:36:29.044Z,6.55
2023-04-09T02:37:29.026Z,6.55
2023-04-09T02:38:29.019Z,6.56
2023-04-09T02:39:29.012Z,6.55
2023-04-09T02:40:28.993Z,6.55
2023-04-09T02:41:28.990Z,6.56
2023-04-09T02:42:29.003Z,6.56
2023-04-09T02:43:28.960Z,6.59
2023-04-09T02:44:28.951Z,6.59
2023-04-09T02:45:28.939Z,6.62
2023-04-09T02:46:29.032Z,6.62
2023-04-09T02:47:28.928Z,6.63
2023-04-09T02:48:28.905Z,6.64
2023-04-09T02:49:28.900Z,6.63
2023-04-09T02:50:29.502Z,6.64
2023-04-09T02:51:28.874Z,6.64
2023-04-09T02:52:28.861Z,6.64
2023-04-09T02:53:28.852Z,6.67
2023-04-09T02:54:28.840Z,6.66
2023-04-09T02:55:28.831Z,6.67
2023-04-09T02:56:28.835Z,6.66
2023-04-09T02:57:28.808Z,6.67
2023-04-09T02:58:28.805Z,6.67
2023-04-09T02:59:28.788Z,6.66
2023-04-09T03:00:28.778Z,6.64
2023-04-09T03:01:28.807Z,6.63
2023-04-09T03:02:28.942Z,6.60
2023-04-09T03:03:28.810Z,6.59
2023-04-09T03:04:28.737Z,6.55
2023-04-09T03:05:28.714Z,6.54
2023-04-09T03:06:28.729Z,6.52
2023-04-09T03:07:28.718Z,6.49
2023-04-09T03:08:28.718Z,6.48
2023-04-09T03:09:28.674Z,6.48
2023-04-09T03:10:28.672Z,6.49
2023-04-09T03:11:28.658Z,6.46
2023-04-09T03:12:28.644Z,6.46
2023-04-09T03:13:28.639Z,6.45
2023-04-09T03:14:28.622Z,6.45
2023-04-09T03:15:28.607Z,6.45
2023-04-09T03:16:28.599Z,6.44
2023-04-09T03:17:28.607Z,6.45
2023-04-09T03:18:28.579Z,6.42
2023-04-09T03:19:28.558Z,6.42
2023-04-09T03:20:28.575Z,6.42
2023-04-09T03:21:28.548Z,6.42
2023-04-09T03:22:28.546Z,6.42
2023-04-09T03:23:28.517Z,6.44
2023-04-09T03:24:28.505Z,6.42
2023-04-09T03:25:28.494Z,6.42
2023-04-09T03:26:28.481Z,6.42
2023-04-09T03:27:28.475Z,6.42
2023-04-09T03:28:28.463Z,6.41
2023-04-09T03:29:28.450Z,6.37
2023-04-09T03:30:28.437Z,6.39
2023-04-09T03:31:28.479Z,6.36
2023-04-09T03:32:28.445Z,6.37
2023-04-09T03:33:28.412Z,6.36
2023-04-09T03:34:28.404Z,6.36
2023-04-09T03:35:28.407Z,6.34
2023-04-09T03:36:28.367Z,6.34
2023-04-09T03:37:28.373Z,6.37
2023-04-09T03:38:28.388Z,6.33
2023-04-09T03:39:28.368Z,6.30
2023-04-09T03:40:28.327Z,6.27
2023-04-09T03:41:28.316Z,6.27
2023-04-09T03:42:28.299Z,6.26
2023-04-09T03:43:28.293Z,6.29
2023-04-09T03:44:28.291Z,6.26
2023-04-09T03:45:28.266Z,6.23
2023-04-09T03:46:28.311Z,6.15
2023-04-09T03:47:28.301Z,6.13
2023-04-09T03:48:28.234Z,6.12
2023-04-09T03:49:28.229Z,6.08
2023-04-09T03:50:28.241Z,6.03
2023-04-09T03:51:28.207Z,5.97
2023-04-09T03:52:28.211Z,5.90
2023-04-09T03:53:28.196Z,5.84
2023-04-09T03:54:28.197Z,5.80
2023-04-09T03:55:28.159Z,5.77
2023-04-09T03:56:28.146Z,5.73
2023-04-09T03:57:28.127Z,5.70
2023-04-09T03:58:28.116Z,5.67
2023-04-09T03:59:28.107Z,5.59
2023-04-09T04:00:28.098Z,5.55
2023-04-09T04:01:28.080Z,5.54
2023-04-09T04:02:28.199Z,5.47
2023-04-09T04:03:30.269Z,5.47
2023-04-09T04:04:28.140Z,5.46
2023-04-09T04:05:28.042Z,5.38
2023-04-09T04:06:28.035Z,5.36
2023-04-09T04:07:30.012Z,5.32
2023-04-09T04:08:28.012Z,5.29
2023-04-09T04:09:27.987Z,5.26
2023-04-09T04:10:30.014Z,5.21
2023-04-09T04:11:27.965Z,5.18
2023-04-09T04:12:27.955Z,5.14
2023-04-09T04:13:27.972Z,5.13
2023-04-09T04:14:29.929Z,5.08
2023-04-09T04:15:27.922Z,5.06
2023-04-09T04:16:27.926Z,5.02
2023-04-09T04:17:27.978Z,5.02
2023-04-09T04:18:27.886Z,4.96
2023-04-09T04:19:27.876Z,4.93
2023-04-09T04:20:27.858Z,4.90
2023-04-09T04:21:29.853Z,4.88
2023-04-09T04:22:27.839Z,4.85
2023-04-09T04:23:27.839Z,4.79
2023-04-09T04:24:27.826Z,4.81
2023-04-09T04:25:27.802Z,4.82
2023-04-09T04:26:27.825Z,4.82
2023-04-09T04:27:27.785Z,4.79
2023-04-09T04:28:27.769Z,4.77
2023-04-09T04:29:29.756Z,4.75
2023-04-09T04:30:27.745Z,4.75
2023-04-09T04:31:27.760Z,4.77
2023-04-09T04:32:29.734Z,4.79
2023-04-09T04:33:29.719Z,4.77
2023-04-09T04:34:27.704Z,4.79
2023-04-09T04:35:27.720Z,4.79
2023-04-09T04:36:27.678Z,4.82
2023-04-09T04:37:27.668Z,4.85
2023-04-09T04:38:27.670Z,4.88
2023-04-09T04:39:27.644Z,4.92
2023-04-09T04:40:27.635Z,4.90
2023-04-09T04:41:29.627Z,4.90
2023-04-09T04:42:29.634Z,4.88
2023-04-09T04:43:27.601Z,4.88
2023-04-09T04:44:29.597Z,4.92
2023-04-09T04:45:27.582Z,4.95
2023-04-09T04:46:29.561Z,4.95
2023-04-09T04:47:29.641Z,4.96
2023-04-09T04:48:27.545Z,4.95
2023-04-09T04:49:27.537Z,4.99
2023-04-09T04:50:27.533Z,5.02
2023-04-09T04:51:27.514Z,5.06
2023-04-09T04:52:27.525Z,5.08
2023-04-09T04:53:27.486Z,5.08
2023-04-09T04:54:27.472Z,5.13
2023-04-09T04:55:27.468Z,5.13
2023-04-09T04:56:27.465Z,5.15
2023-04-09T04:57:27.443Z,5.14
2023-04-09T04:58:27.454Z,5.15
2023-04-09T04:59:27.439Z,5.18
2023-04-09T05:00:27.404Z,5.18
2023-04-09T05:01:27.541Z,5.21
2023-04-09T05:02:27.482Z,5.21
2023-04-09T05:03:27.798Z,5.23
2023-04-09T05:04:27.371Z,5.23
2023-04-09T05:05:27.344Z,5.21
2023-04-09T05:06:27.339Z,5.20
2023-04-09T05:07:27.324Z,5.23
2023-04-09T05:08:27.315Z,5.26
2023-04-09T05:09:27.298Z,5.29
2023-04-09T05:10:27.290Z,5.29
2023-04-09T05:11:27.282Z,5.26
2023-04-09T05:12:27.266Z,5.23
2023-04-09T05:13:27.260Z,5.20
2023-04-09T05:14:27.269Z,5.24
2023-04-09T05:15:27.237Z,5.26
2023-04-09T05:16:27.269Z,5.31
2023-04-09T05:17:27.232Z,5.31
2023-04-09T05:18:27.197Z,5.32
2023-04-09T05:19:27.186Z,5.32
2023-04-09T05:20:27.191Z,5.36
2023-04-09T05:21:27.165Z,5.38
2023-04-09T05:22:27.177Z,5.40
2023-04-09T05:23:27.138Z,5.42
2023-04-09T05:24:27.125Z,5.43
2023-04-09T05:25:27.121Z,5.47
2023-04-09T05:26:27.104Z,5.46
2023-04-09T05:27:27.100Z,5.47
2023-04-09T05:28:27.082Z,5.49
2023-04-09T05:29:27.071Z,5.42
2023-04-09T05:30:27.095Z,5.40
2023-04-09T05:31:27.050Z,5.43
2023-04-09T05:32:27.051Z,5.46
2023-04-09T05:33:27.026Z,5.49
2023-04-09T05:34:27.015Z,5.54
2023-04-09T05:35:27.008Z,5.57
2023-04-09T05:36:26.992Z,5.61
2023-04-09T05:37:26.994Z,5.62
2023-04-09T05:38:26.972Z,5.66
2023-04-09T05:39:26.968Z,5.72
2023-04-09T05:40:26.963Z,5.73
2023-04-09T05:41:26.945Z,5.75
2023-04-09T05:42:26.929Z,5.76
2023-04-09T05:43:26.924Z,5.70
2023-04-09T05:44:26.900Z,5.65
2023-04-09T05:45:26.899Z,5.59
2023-04-09T05:46:26.932Z,5.61
2023-04-09T05:47:26.915Z,5.58
2023-04-09T05:48:26.861Z,5.61
2023-04-09T05:49:26.849Z,5.67
2023-04-09T05:50:26.836Z,5.73
2023-04-09T05:51:26.831Z,5.77
2023-04-09T05:52:26.814Z,5.82
2023-04-09T05:53:26.807Z,5.88
2023-04-09T05:54:26.800Z,5.91
2023-04-09T05:55:26.780Z,5.93
2023-04-09T05:56:26.774Z,5.91
2023-04-09T05:57:26.760Z,5.80
2023-04-09T05:58:26.760Z,5.75
2023-04-09T05:59:26.739Z,5.70
2023-04-09T06:00:26.753Z,5.67
2023-04-09T06:01:26.723Z,5.69
2023-04-09T06:02:26.872Z,5.73
2023-04-09T06:03:26.796Z,5.76
2023-04-09T06:04:26.708Z,5.82
2023-04-09T06:05:26.674Z,5.85
2023-04-09T06:06:26.660Z,5.90
2023-04-09T06:07:26.649Z,5.90
2023-04-09T06:08:26.640Z,5.88
2023-04-09T06:09:26.628Z,5.90
2023-04-09T06:10:26.622Z,5.93
2023-04-09T06:11:26.616Z,5.95
2023-04-09T06:12:26.591Z,5.95
2023-04-09T06:13:26.586Z,6.02
2023-04-09T06:14:26.578Z,6.00
2023-04-09T06:15:26.572Z,6.02
2023-04-09T06:16:26.554Z,6.06
2023-04-09T06:17:26.567Z,6.12
2023-04-09T06:18:26.555Z,6.12
2023-04-09T06:19:26.517Z,6.19
2023-04-09T06:20:26.510Z,6.27
2023-04-09T06:21:26.494Z,6.37
2023-04-09T06:22:26.480Z,6.44
2023-04-09T06:23:26.468Z,6.51
2023-04-09T06:24:26.461Z,6.55
2023-04-09T06:25:26.445Z,6.55
2023-04-09T06:26:26.441Z,6.56
2023-04-09T06:27:26.427Z,6.62
2023-04-09T06:28:26.412Z,6.67
2023-04-09T06:29:26.413Z,6.74
2023-04-09T06:30:26.394Z,6.82
2023-04-09T06:31:26.457Z,6.81
2023-04-09T06:32:26.391Z,6.81
2023-04-09T06:33:26.405Z,6.81
2023-04-09T06:34:26.390Z,6.87
2023-04-09T06:35:26.346Z,6.92
2023-04-09T06:36:26.326Z,6.97
2023-04-09T06:37:26.317Z,7.00
2023-04-09T06:38:26.305Z,7.03
2023-04-09T06:39:26.297Z,7.07
2023-04-09T06:40:26.287Z,7.13
2023-04-09T06:41:26.276Z,7.15
2023-04-09T06:42:26.262Z,7.21
2023-04-09T06:43:26.251Z,7.29
2023-04-09T06:44:26.251Z,7.36
2023-04-09T06:45:26.229Z,7.44
2023-04-09T06:46:26.246Z,7.52
2023-04-09T06:47:26.248Z,7.58
2023-04-09T06:48:26.198Z,7.62
2023-04-09T06:49:26.194Z,7.64
2023-04-09T06:50:26.208Z,7.55
2023-04-09T06:51:26.159Z,7.52
2023-04-09T06:52:26.151Z,7.55
2023-04-09T06:53:26.173Z,7.58
2023-04-09T06:54:26.124Z,7.67
2023-04-09T06:55:26.109Z,7.68
2023-04-09T06:56:26.097Z,7.72
2023-04-09T06:57:26.091Z,7.75
2023-04-09T06:58:26.078Z,7.79
2023-04-09T06:59:26.065Z,7.90
2023-04-09T07:00:26.053Z,7.95
2023-04-09T07:01:26.083Z,7.97
2023-04-09T07:02:26.165Z,8.04
2023-04-09T07:03:26.207Z,8.11
2023-04-09T07:04:26.085Z,8.11
2023-04-09T07:05:26.002Z,8.15
2023-04-09T07:06:26.015Z,8.11
2023-04-09T07:07:26.005Z,8.11
2023-04-09T07:08:25.973Z,8.19
2023-04-09T07:09:25.947Z,8.28
2023-04-09T07:10:25.948Z,8.38
2023-04-09T07:11:25.928Z,8.49
2023-04-09T07:12:25.915Z,8.60
2023-04-09T07:13:25.931Z,8.68
2023-04-09T07:14:25.905Z,8.71
2023-04-09T07:15:25.880Z,8.71
2023-04-09T07:16:25.893Z,8.63
2023-04-09T07:17:25.893Z,8.55
2023-04-09T07:18:25.842Z,8.59
2023-04-09T07:19:25.839Z,8.67
2023-04-09T07:20:25.819Z,8.74
2023-04-09T07:21:25.810Z,8.77
2023-04-09T07:22:25.825Z,8.75
2023-04-09T07:23:25.786Z,8.75
2023-04-09T07:24:25.778Z,8.65
2023-04-09T07:25:25.778Z,8.56
2023-04-09T07:26:25.753Z,8.56
2023-04-09T07:27:25.882Z,8.55
2023-04-09T07:28:25.726Z,8.53
2023-04-09T07:29:25.719Z,8.53
2023-04-09T07:30:25.836Z,8.50
2023-04-09T07:31:25.751Z,8.59
2023-04-09T07:32:25.721Z,8.70
2023-04-09T07:33:25.671Z,8.71
2023-04-09T07:34:25.664Z,8.78
2023-04-09T07:35:25.660Z,8.90
2023-04-09T07:36:25.650Z,8.88
2023-04-09T07:37:25.634Z,8.88
2023-04-09T07:38:25.638Z,8.95
2023-04-09T07:39:25.605Z,8.93
2023-04-09T07:40:25.742Z,8.93
2023-04-09T07:41:25.579Z,8.96
2023-04-09T07:42:25.579Z,8.99
2023-04-09T07:43:25.571Z,8.95
2023-04-09T07:44:25.547Z,8.88
2023-04-09T07:45:25.540Z,8.95
2023-04-09T07:46:25.527Z,8.98
2023-04-09T07:47:25.536Z,8.96
2023-04-09T07:48:25.501Z,8.92
2023-04-09T07:49:25.490Z,8.95
2023-04-09T07:50:25.475Z,9.03
2023-04-09T07:51:25.468Z,9.01
2023-04-09T07:52:25.452Z,8.99
2023-04-09T07:53:25.448Z,9.11
2023-04-09T07:54:25.463Z,9.25
2023-04-09T07:55:25.433Z,9.39
2023-04-09T07:56:25.416Z,9.44
2023-04-09T07:57:25.397Z,9.56
2023-04-09T07:58:25.388Z,9.64
2023-04-09T07:59:25.380Z,9.69
2023-04-09T08:00:25.369Z,9.72
2023-04-09T08:01:25.352Z,9.68
2023-04-09T08:02:25.583Z,9.72
2023-04-09T08:03:25.593Z,9.83
2023-04-09T08:04:25.400Z,9.88
2023-04-09T08:05:25.313Z,9.93
2023-04-09T08:06:25.292Z,10.03
2023-04-09T08:07:25.281Z,10.03
2023-04-09T08:08:25.276Z,9.99
2023-04-09T08:09:25.263Z,9.98
2023-04-09T08:10:25.278Z,9.93
2023-04-09T08:11:25.249Z,9.94
2023-04-09T08:12:25.227Z,9.99
2023-04-09T08:13:25.209Z,9.94
2023-04-09T08:14:25.200Z,9.91
2023-04-09T08:15:25.186Z,9.83
2023-04-09T08:16:25.203Z,9.77
2023-04-09T08:17:25.203Z,9.80
2023-04-09T08:18:25.167Z,9.87
2023-04-09T08:19:25.143Z,9.88
2023-04-09T08:20:25.128Z,9.88
2023-04-09T08:21:25.127Z,9.91
2023-04-09T08:22:25.108Z,9.85
2023-04-09T08:23:25.099Z,9.77
2023-04-09T08:24:25.081Z,9.66
2023-04-09T08:25:25.131Z,9.71
2023-04-09T08:26:25.094Z,9.77
2023-04-09T08:27:25.055Z,9.87
2023-04-09T08:28:25.041Z,9.98
2023-04-09T08:29:25.029Z,9.91
2023-04-09T08:30:25.016Z,10.05
2023-04-09T08:31:25.035Z,10.12
2023-04-09T08:32:25.039Z,10.14
2023-04-09T08:33:24.980Z,10.20
2023-04-09T08:34:24.977Z,10.30
2023-04-09T08:35:24.960Z,10.35
2023-04-09T08:36:24.996Z,10.42
2023-04-09T08:37:24.944Z,10.46
2023-04-09T08:38:24.922Z,10.45
2023-04-09T08:39:24.922Z,10.49
2023-04-09T08:40:24.906Z,10.53
2023-04-09T08:41:24.922Z,10.59
2023-04-09T08:42:24.913Z,10.59
2023-04-09T08:43:29.949Z,10.54
2023-04-09T08:44:24.857Z,10.54
2023-04-09T08:45:24.875Z,10.59
2023-04-09T08:46:24.992Z,10.69
2023-04-09T08:47:24.891Z,10.86
2023-04-09T08:48:24.865Z,11.02
2023-04-09T08:49:24.805Z,11.12
2023-04-09T08:50:24.790Z,11.15
2023-04-09T08:51:24.874Z,11.11
2023-04-09T08:52:24.769Z,10.96
2023-04-09T08:53:24.755Z,10.75
2023-04-09T08:54:24.745Z,10.66
2023-04-09T08:55:24.732Z,10.69
2023-04-09T08:56:24.751Z,10.94
2023-04-09T08:57:24.714Z,11.15
2023-04-09T08:58:24.730Z,11.41
2023-04-09T08:59:24.690Z,11.59
2023-04-09T09:00:24.676Z,11.77
2023-04-09T09:01:24.785Z,12.02
2023-04-09T09:02:24.739Z,12.24
2023-04-09T09:03:24.707Z,12.27
2023-04-09T09:04:24.721Z,12.40
2023-04-09T09:05:24.685Z,12.46
2023-04-09T09:06:24.623Z,12.57
2023-04-09T09:07:24.594Z,12.66
2023-04-09T09:08:24.601Z,12.76
2023-04-09T09:09:24.585Z,12.77
2023-04-09T09:10:24.578Z,12.76
2023-04-09T09:11:24.566Z,12.83
2023-04-09T09:12:25.993Z,12.90
2023-04-09T09:13:24.579Z,12.88
2023-04-09T09:14:24.573Z,12.72
2023-04-09T09:15:24.507Z,12.68
2023-04-09T09:16:24.570Z,12.61
2023-04-09T09:17:24.540Z,12.54
2023-04-09T09:18:24.469Z,12.53
2023-04-09T09:19:24.454Z,12.63
2023-04-09T09:20:24.445Z,12.72
2023-04-09T09:21:24.433Z,12.79
2023-04-09T09:22:24.573Z,12.80
2023-04-09T09:23:24.413Z,12.96
2023-04-09T09:24:24.401Z,12.96
2023-04-09T09:25:24.426Z,13.19
2023-04-09T09:26:24.382Z,13.37
2023-04-09T09:27:24.366Z,13.44
2023-04-09T09:28:24.353Z,13.62
2023-04-09T09:29:24.348Z,13.93
2023-04-09T09:30:24.359Z,14.27
2023-04-09T09:31:24.398Z,14.45
2023-04-09T09:32:24.356Z,14.95
2023-04-09T09:33:24.299Z,15.28
2023-04-09T09:34:24.292Z,15.42
2023-04-09T09:35:24.304Z,15.52
2023-04-09T09:36:24.274Z,15.76
2023-04-09T09:37:24.261Z,15.98
2023-04-09T09:38:24.243Z,16.18
2023-04-09T09:39:24.233Z,16.91
2023-04-09T09:40:24.233Z,17.25
2023-04-09T09:41:24.211Z,17.65
2023-04-09T09:42:24.211Z,17.59
2023-04-09T09:43:24.190Z,17.67
2023-04-09T09:44:24.181Z,17.54
2023-04-09T09:45:24.170Z,17.56
2023-04-09T09:46:24.205Z,17.56
2023-04-09T09:47:24.157Z,17.71
2023-04-09T09:48:25.750Z,17.53
2023-04-09T09:49:24.132Z,17.49
2023-04-09T09:50:24.117Z,17.45
2023-04-09T09:51:24.097Z,17.17
2023-04-09T09:52:24.090Z,17.78
2023-04-09T09:53:24.090Z,18.49
2023-04-09T09:54:24.066Z,19.03
2023-04-09T09:55:24.056Z,19.30
2023-04-09T09:56:24.045Z,18.98
2023-04-09T09:57:24.029Z,18.36
2023-04-09T09:58:24.022Z,18.11
2023-04-09T09:59:24.012Z,18.17
2023-04-09T10:00:24.080Z,18.10
2023-04-09T10:01:24.028Z,18.19
2023-04-09T10:02:24.105Z,18.16
2023-04-09T10:03:24.019Z,18.34
2023-04-09T10:04:24.112Z,18.11
2023-04-09T10:05:23.942Z,18.11
2023-04-09T10:06:23.944Z,18.20
2023-04-09T10:07:23.923Z,18.36
2023-04-09T10:08:23.905Z,18.33
2023-04-09T10:09:23.906Z,18.36
2023-04-09T10:10:23.888Z,18.43
2023-04-09T10:11:23.877Z,17.87
2023-04-09T10:12:23.864Z,17.82
2023-04-09T10:13:23.849Z,18.42
2023-04-09T10:14:23.843Z,19.15
2023-04-09T10:15:23.927Z,19.81
2023-04-09T10:16:23.862Z,20.09
2023-04-09T10:17:23.835Z,20.47
2023-04-09T10:18:23.821Z,20.49
2023-04-09T10:19:23.778Z,20.23
2023-04-09T10:20:23.772Z,19.86
2023-04-09T10:21:23.756Z,19.18
2023-04-09T10:22:23.750Z,17.70
2023-04-09T10:23:23.733Z,17.20
2023-04-09T10:24:23.752Z,17.24
2023-04-09T10:25:23.712Z,17.53
2023-04-09T10:26:23.706Z,17.82
2023-04-09T10:27:23.700Z,17.92
2023-04-09T10:28:23.678Z,17.90
2023-04-09T10:29:23.672Z,17.96
2023-04-09T10:30:23.654Z,17.93
2023-04-09T10:31:23.755Z,17.50
2023-04-09T10:32:23.917Z,17.38
2023-04-09T10:33:23.618Z,17.62
2023-04-09T10:34:23.658Z,17.68
2023-04-09T10:35:23.610Z,17.59
2023-04-09T10:36:23.605Z,17.96
2023-04-09T10:37:23.591Z,18.02
2023-04-09T10:38:23.565Z,18.17
2023-04-09T10:39:23.550Z,18.12
2023-04-09T10:40:23.539Z,17.87
2023-04-09T10:41:23.528Z,17.61
2023-04-09T10:42:23.525Z,17.54
2023-04-09T10:43:23.528Z,17.27
2023-04-09T10:44:23.492Z,17.14
2023-04-09T10:45:23.487Z,17.12
2023-04-09T10:46:23.530Z,17.52
2023-04-09T10:47:23.491Z,17.92
2023-04-09T10:48:23.466Z,18.08
2023-04-09T10:49:23.460Z,18.10
2023-04-09T10:50:24.216Z,18.16
2023-04-09T10:51:23.419Z,18.08
2023-04-09T10:52:23.406Z,17.98
2023-04-09T10:53:23.399Z,18.33
2023-04-09T10:54:23.382Z,18.34
2023-04-09T10:55:23.370Z,18.46
2023-04-09T10:56:23.357Z,18.98
2023-04-09T10:57:23.361Z,19.38
2023-04-09T10:58:23.336Z,19.90
2023-04-09T10:59:23.332Z,20.15
2023-04-09T11:00:23.314Z,20.30
2023-04-09T11:01:23.370Z,20.63
2023-04-09T11:02:23.385Z,20.82
2023-04-09T11:03:23.495Z,21.09
2023-04-09T11:04:23.284Z,21.32
2023-04-09T11:05:23.262Z,21.29
2023-04-09T11:06:23.279Z,21.25
2023-04-09T11:07:23.236Z,21.09
2023-04-09T11:08:23.240Z,21.07
2023-04-09T11:09:23.215Z,21.20
2023-04-09T11:10:23.205Z,21.25
2023-04-09T11:11:23.200Z,21.25
2023-04-09T11:12:23.184Z,21.20
2023-04-09T11:13:23.170Z,21.25
2023-04-09T11:14:23.158Z,21.45
2023-04-09T11:15:23.146Z,21.71
2023-04-09T11:16:25.498Z,21.96
2023-04-09T11:17:23.154Z,21.89
2023-04-09T11:18:23.116Z,21.67
2023-04-09T11:19:23.099Z,20.94
2023-04-09T11:20:23.095Z,20.27
2023-04-09T11:21:23.079Z,19.82
2023-04-09T11:22:23.107Z,19.26
2023-04-09T11:23:23.065Z,19.23
2023-04-09T11:24:23.048Z,18.96
2023-04-09T11:25:23.039Z,19.01
2023-04-09T11:26:23.020Z,19.46
2023-04-09T11:27:23.011Z,19.78
2023-04-09T11:28:23.014Z,20.14
2023-04-09T11:29:22.995Z,20.55
2023-04-09T11:30:22.983Z,20.85
2023-04-09T11:31:23.003Z,20.85
2023-04-09T11:32:23.036Z,20.91
2023-04-09T11:33:22.958Z,21.13
2023-04-09T11:34:22.954Z,21.53
2023-04-09T11:35:22.921Z,21.93
2023-04-09T11:36:22.907Z,22.18
2023-04-09T11:37:22.899Z,22.35
2023-04-09T11:38:22.912Z,22.50
2023-04-09T11:39:22.874Z,22.76
2023-04-09T11:40:22.885Z,22.91
2023-04-09T11:41:22.859Z,22.81
2023-04-09T11:42:22.847Z,22.78
2023-04-09T11:43:22.832Z,22.64
2023-04-09T11:44:22.828Z,22.66
2023-04-09T11:45:22.810Z,22.52
2023-04-09T11:46:22.815Z,22.24
2023-04-09T11:47:22.809Z,21.97
2023-04-09T11:48:22.777Z,21.53
2023-04-09T11:49:22.766Z,21.66
2023-04-09T11:50:22.767Z,20.89
2023-04-09T11:51:22.746Z,20.42
2023-04-09T11:52:22.729Z,20.39
2023-04-09T11:53:22.730Z,20.51
2023-04-09T11:54:22.738Z,20.52
2023-04-09T11:55:22.706Z,20.92
2023-04-09T11:56:22.695Z,21.38
2023-04-09T11:57:22.686Z,21.41
2023-04-09T11:58:22.707Z,21.41
2023-04-09T11:59:22.663Z,21.34
2023-04-09T12:00:22.646Z,21.40
2023-04-09T12:01:22.634Z,21.50
2023-04-09T12:02:22.797Z,21.34
2023-04-09T12:03:22.936Z,21.23
2023-04-09T12:04:22.740Z,21.04
2023-04-09T12:05:22.592Z,20.91
2023-04-09T12:06:22.594Z,20.67
2023-04-09T12:07:22.565Z,20.00
2023-04-09T12:08:22.556Z,19.86
2023-04-09T12:09:22.546Z,20.04
2023-04-09T12:10:22.562Z,20.18
2023-04-09T12:11:22.522Z,20.47
2023-04-09T12:12:22.518Z,20.73
2023-04-09T12:13:22.501Z,20.96
2023-04-09T12:14:22.499Z,20.84
2023-04-09T12:15:22.484Z,20.89
2023-04-09T12:16:22.490Z,21.00
2023-04-09T12:17:22.469Z,20.92
2023-04-09T12:18:22.449Z,21.09
2023-04-09T12:19:22.444Z,21.06
2023-04-09T12:20:22.424Z,21.19
2023-04-09T12:21:22.417Z,21.20
2023-04-09T12:22:22.405Z,21.32
2023-04-09T12:23:22.391Z,21.56
2023-04-09T12:24:22.384Z,21.60
2023-04-09T12:25:22.376Z,21.75
2023-04-09T12:26:22.386Z,21.75
2023-04-09T12:27:22.342Z,21.59
2023-04-09T12:28:22.337Z,21.45
2023-04-09T12:29:22.334Z,21.30
2023-04-09T12:30:22.316Z,21.63
2023-04-09T12:31:22.334Z,21.90
2023-04-09T12:32:22.315Z,21.97
2023-04-09T12:33:22.276Z,21.96
2023-04-09T12:34:22.270Z,21.96
2023-04-09T12:35:22.294Z,21.92
2023-04-09T12:36:22.245Z,21.85
2023-04-09T12:37:22.240Z,21.87
2023-04-09T12:38:22.241Z,21.90
2023-04-09T12:39:22.218Z,22.00
2023-04-09T12:40:22.205Z,21.93
2023-04-09T12:41:22.188Z,21.95
2023-04-09T12:42:22.205Z,21.99
2023-04-09T12:43:22.197Z,22.03
2023-04-09T12:44:22.159Z,22.18
2023-04-09T12:45:22.142Z,21.97
2023-04-09T12:46:22.144Z,21.67
2023-04-09T12:47:22.135Z,21.40
2023-04-09T12:48:22.116Z,21.20
2023-04-09T12:49:22.097Z,21.06
2023-04-09T12:50:22.101Z,21.13
2023-04-09T12:51:22.077Z,21.26
2023-04-09T12:52:22.066Z,21.41
2023-04-09T12:53:22.058Z,21.44
2023-04-09T12:54:22.047Z,21.56
2023-04-09T12:55:22.031Z,21.56
2023-04-09T12:56:22.026Z,21.53
2023-04-09T12:57:22.016Z,21.47
2023-04-09T12:58:22.029Z,21.40
2023-04-09T12:59:21.993Z,21.32
2023-04-09T13:00:21.978Z,21.41
2023-04-09T13:01:22.000Z,21.25
2023-04-09T13:02:22.112Z,21.19
2023-04-09T13:03:22.150Z,21.26
2023-04-09T13:04:22.067Z,21.23
2023-04-09T13:05:21.923Z,21.18
2023-04-09T13:06:21.916Z,21.19
2023-04-09T13:07:21.899Z,21.18
2023-04-09T13:08:21.897Z,20.87
2023-04-09T13:09:21.880Z,20.57
2023-04-09T13:10:21.869Z,20.57